sensor_id;sensor_type;location;lat;lon;timestamp;P1;P2;P0
80555;PMS5003;69889;55.040;73.076;2024-01-30T00:00:57;36.25;29.50;18.75
80555;PMS5003;69889;55.040;73.076;2024-01-30T00:03:24;39.00;31.25;19.50
80555;PMS5003;69889;55.040;73.076;2024-01-30T00:05:50;37.25;29.00;18.25
80555;PMS5003;69889;55.040;73.076;2024-01-30T00:08:19;41.75;32.75;19.75
80555;PMS5003;69889;55.040;73.076;2024-01-30T00:10:46;35.00;28.75;19.50
80555;PMS5003;69889;55.040;73.076;2024-01-30T00:13:13;35.00;28.50;18.00
80555;PMS5003;69889;55.040;73.076;2024-01-30T00:15:40;35.50;29.25;18.50
80555;PMS5003;69889;55.040;73.076;2024-01-30T00:18:07;41.25;33.25;20.25
80555;PMS5003;69889;55.040;73.076;2024-01-30T00:20:33;39.25;31.50;19.25
80555;PMS5003;69889;55.040;73.076;2024-01-30T00:23:00;41.00;32.75;20.00
80555;PMS5003;69889;55.040;73.076;2024-01-30T00:25:26;37.50;30.00;19.00
80555;PMS5003;69889;55.040;73.076;2024-01-30T00:27:53;38.25;30.50;20.00
80555;PMS5003;69889;55.040;73.076;2024-01-30T00:30:20;41.25;33.25;20.00
80555;PMS5003;69889;55.040;73.076;2024-01-30T00:32:46;39.00;32.00;20.50
80555;PMS5003;69889;55.040;73.076;2024-01-30T00:35:12;46.50;37.25;22.00
80555;PMS5003;69889;55.040;73.076;2024-01-30T00:37:40;51.25;39.50;23.00
80555;PMS5003;69889;55.040;73.076;2024-01-30T00:40:07;54.50;42.25;25.75
80555;PMS5003;69889;55.040;73.076;2024-01-30T00:42:33;55.50;44.75;28.00
80555;PMS5003;69889;55.040;73.076;2024-01-30T00:45:00;65.00;49.50;28.50
80555;PMS5003;69889;55.040;73.076;2024-01-30T00:47:31;63.00;47.50;29.75
80555;PMS5003;69889;55.040;73.076;2024-01-30T00:49:59;67.25;51.25;30.00
80555;PMS5003;69889;55.040;73.076;2024-01-30T00:52:25;57.00;44.50;27.50
80555;PMS5003;69889;55.040;73.076;2024-01-30T00:54:51;52.50;41.50;26.50
80555;PMS5003;69889;55.040;73.076;2024-01-30T00:57:18;55.50;42.75;26.25
80555;PMS5003;69889;55.040;73.076;2024-01-30T00:59:46;54.50;43.25;27.25
80555;PMS5003;69889;55.040;73.076;2024-01-30T01:02:13;52.25;40.25;25.50
80555;PMS5003;69889;55.040;73.076;2024-01-30T01:04:39;50.25;40.75;25.50
80555;PMS5003;69889;55.040;73.076;2024-01-30T01:07:06;53.00;42.00;24.75
80555;PMS5003;69889;55.040;73.076;2024-01-30T01:09:32;47.00;36.50;21.75
80555;PMS5003;69889;55.040;73.076;2024-01-30T01:11:59;40.00;31.25;18.50
80555;PMS5003;69889;55.040;73.076;2024-01-30T01:14:25;35.75;29.50;19.00
80555;PMS5003;69889;55.040;73.076;2024-01-30T01:16:51;34.50;29.75;17.75
80555;PMS5003;69889;55.040;73.076;2024-01-30T01:19:18;35.00;27.25;18.50
80555;PMS5003;69889;55.040;73.076;2024-01-30T01:21:45;38.25;31.00;20.25
80555;PMS5003;69889;55.040;73.076;2024-01-30T01:24:21;34.25;27.75;17.00
80555;PMS5003;69889;55.040;73.076;2024-01-30T01:26:47;35.00;27.25;17.75
80555;PMS5003;69889;55.040;73.076;2024-01-30T01:29:13;33.50;26.75;16.25
80555;PMS5003;69889;55.040;73.076;2024-01-30T01:31:41;40.50;32.50;20.00
80555;PMS5003;69889;55.040;73.076;2024-01-30T01:34:12;32.75;28.00;19.00
80555;PMS5003;69889;55.040;73.076;2024-01-30T01:36:39;35.25;27.50;18.00
80555;PMS5003;69889;55.040;73.076;2024-01-30T01:39:05;31.50;26.50;17.00
80555;PMS5003;69889;55.040;73.076;2024-01-30T01:41:32;33.50;25.25;16.50
80555;PMS5003;69889;55.040;73.076;2024-01-30T01:43:59;27.75;23.75;14.25
80555;PMS5003;69889;55.040;73.076;2024-01-30T01:46:30;30.00;25.00;14.25
80555;PMS5003;69889;55.040;73.076;2024-01-30T01:48:56;26.50;22.00;13.50
80555;PMS5003;69889;55.040;73.076;2024-01-30T01:51:23;27.00;21.50;14.50
80555;PMS5003;69889;55.040;73.076;2024-01-30T01:53:50;29.50;24.00;14.75
80555;PMS5003;69889;55.040;73.076;2024-01-30T01:56:17;26.00;24.25;14.50
80555;PMS5003;69889;55.040;73.076;2024-01-30T01:58:44;27.25;23.00;14.50
80555;PMS5003;69889;55.040;73.076;2024-01-30T02:01:12;31.00;25.00;15.00
80555;PMS5003;69889;55.040;73.076;2024-01-30T02:03:40;22.50;19.50;12.00
80555;PMS5003;69889;55.040;73.076;2024-01-30T02:06:07;25.75;22.25;14.00
80555;PMS5003;69889;55.040;73.076;2024-01-30T02:08:33;27.00;23.50;14.00
80555;PMS5003;69889;55.040;73.076;2024-01-30T02:11:00;26.75;23.50;15.25
80555;PMS5003;69889;55.040;73.076;2024-01-30T02:13:26;28.75;24.75;16.00
80555;PMS5003;69889;55.040;73.076;2024-01-30T02:15:56;34.25;28.50;17.00
80555;PMS5003;69889;55.040;73.076;2024-01-30T02:18:22;31.25;25.50;16.00
80555;PMS5003;69889;55.040;73.076;2024-01-30T02:21:09;44.00;34.25;20.00
80555;PMS5003;69889;55.040;73.076;2024-01-30T02:23:36;44.00;34.25;20.25
80555;PMS5003;69889;55.040;73.076;2024-01-30T02:26:02;50.50;39.50;24.50
80555;PMS5003;69889;55.040;73.076;2024-01-30T02:28:29;50.00;39.25;24.00
80555;PMS5003;69889;55.040;73.076;2024-01-30T02:30:55;67.50;51.25;30.00
80555;PMS5003;69889;55.040;73.076;2024-01-30T02:33:22;80.25;65.00;36.00
80555;PMS5003;69889;55.040;73.076;2024-01-30T02:35:49;86.00;69.75;39.50
80555;PMS5003;69889;55.040;73.076;2024-01-30T02:38:19;96.50;76.50;42.25
80555;PMS5003;69889;55.040;73.076;2024-01-30T02:40:46;78.25;63.25;37.50
80555;PMS5003;69889;55.040;73.076;2024-01-30T02:43:12;70.25;54.25;33.25
80555;PMS5003;69889;55.040;73.076;2024-01-30T02:45:38;52.25;42.25;27.50
80555;PMS5003;69889;55.040;73.076;2024-01-30T02:48:05;46.00;36.50;22.50
80555;PMS5003;69889;55.040;73.076;2024-01-30T02:50:32;36.25;30.50;20.00
80555;PMS5003;69889;55.040;73.076;2024-01-30T02:52:58;37.25;30.00;19.00
80555;PMS5003;69889;55.040;73.076;2024-01-30T02:55:25;34.25;27.50;17.00
80555;PMS5003;69889;55.040;73.076;2024-01-30T02:57:51;64.00;46.75;27.25
80555;PMS5003;69889;55.040;73.076;2024-01-30T03:00:18;51.25;38.50;21.75
80555;PMS5003;69889;55.040;73.076;2024-01-30T03:02:45;62.50;45.50;24.75
80555;PMS5003;69889;55.040;73.076;2024-01-30T03:05:12;51.50;38.50;22.25
80555;PMS5003;69889;55.040;73.076;2024-01-30T03:07:38;61.00;45.50;26.00
80555;PMS5003;69889;55.040;73.076;2024-01-30T03:10:05;50.75;37.50;22.25
80555;PMS5003;69889;55.040;73.076;2024-01-30T03:12:32;33.50;27.00;17.00
80555;PMS5003;69889;55.040;73.076;2024-01-30T03:14:58;29.75;24.50;15.00
80555;PMS5003;69889;55.040;73.076;2024-01-30T03:17:25;31.75;25.25;14.50
80555;PMS5003;69889;55.040;73.076;2024-01-30T03:19:51;29.50;24.50;14.50
80555;PMS5003;69889;55.040;73.076;2024-01-30T03:22:17;41.50;32.75;18.00
80555;PMS5003;69889;55.040;73.076;2024-01-30T03:24:44;49.00;37.50;21.00
80555;PMS5003;69889;55.040;73.076;2024-01-30T03:27:10;41.50;34.00;19.50
80555;PMS5003;69889;55.040;73.076;2024-01-30T03:29:37;38.50;31.00;19.00
80555;PMS5003;69889;55.040;73.076;2024-01-30T03:32:04;51.50;40.00;22.00
80555;PMS5003;69889;55.040;73.076;2024-01-30T03:34:30;54.50;43.00;25.00
80555;PMS5003;69889;55.040;73.076;2024-01-30T03:36:57;55.50;41.50;22.75
80555;PMS5003;69889;55.040;73.076;2024-01-30T03:39:23;40.75;30.50;17.00
80555;PMS5003;69889;55.040;73.076;2024-01-30T03:41:54;50.25;40.00;25.00
80555;PMS5003;69889;55.040;73.076;2024-01-30T03:44:24;51.00;41.50;27.50
80555;PMS5003;69889;55.040;73.076;2024-01-30T03:46:51;52.50;42.50;28.00
80555;PMS5003;69889;55.040;73.076;2024-01-30T03:49:18;56.25;45.00;30.00
80555;PMS5003;69889;55.040;73.076;2024-01-30T03:51:48;30.50;24.50;14.50
80555;PMS5003;69889;55.040;73.076;2024-01-30T03:54:15;27.00;23.00;14.00
80555;PMS5003;69889;55.040;73.076;2024-01-30T03:56:41;27.50;24.00;16.00
80555;PMS5003;69889;55.040;73.076;2024-01-30T03:59:11;31.00;24.50;15.75
80555;PMS5003;69889;55.040;73.076;2024-01-30T04:01:38;31.25;25.75;17.00
80555;PMS5003;69889;55.040;73.076;2024-01-30T04:04:04;30.50;26.00;16.50
80555;PMS5003;69889;55.040;73.076;2024-01-30T04:06:30;31.50;25.75;16.75
80555;PMS5003;69889;55.040;73.076;2024-01-30T04:08:57;27.75;24.00;14.75
80555;PMS5003;69889;55.040;73.076;2024-01-30T04:11:23;30.25;25.25;15.75
80555;PMS5003;69889;55.040;73.076;2024-01-30T04:13:50;30.50;25.75;15.50
80555;PMS5003;69889;55.040;73.076;2024-01-30T04:16:22;29.25;24.00;15.75
80555;PMS5003;69889;55.040;73.076;2024-01-30T04:18:53;34.00;27.50;16.50
80555;PMS5003;69889;55.040;73.076;2024-01-30T04:21:20;33.75;26.00;16.00
80555;PMS5003;69889;55.040;73.076;2024-01-30T04:23:47;31.00;25.75;14.50
80555;PMS5003;69889;55.040;73.076;2024-01-30T04:26:14;29.50;25.25;16.00
80555;PMS5003;69889;55.040;73.076;2024-01-30T04:28:41;32.50;25.75;16.00
80555;PMS5003;69889;55.040;73.076;2024-01-30T04:31:07;34.25;27.50;16.50
80555;PMS5003;69889;55.040;73.076;2024-01-30T04:33:36;39.00;31.00;19.25
80555;PMS5003;69889;55.040;73.076;2024-01-30T04:36:03;40.75;32.50;20.00
80555;PMS5003;69889;55.040;73.076;2024-01-30T04:38:31;60.25;46.00;29.25
80555;PMS5003;69889;55.040;73.076;2024-01-30T04:40:57;53.50;41.25;25.50
80555;PMS5003;69889;55.040;73.076;2024-01-30T04:43:24;43.50;35.50;22.50
80555;PMS5003;69889;55.040;73.076;2024-01-30T04:45:52;46.50;38.00;23.50
80555;PMS5003;69889;55.040;73.076;2024-01-30T04:48:18;47.50;37.25;23.00
80555;PMS5003;69889;55.040;73.076;2024-01-30T04:50:45;43.25;34.50;22.00
80555;PMS5003;69889;55.040;73.076;2024-01-30T04:53:11;47.00;37.00;23.00
80555;PMS5003;69889;55.040;73.076;2024-01-30T04:55:38;42.25;34.50;21.50
80555;PMS5003;69889;55.040;73.076;2024-01-30T04:58:04;40.75;32.50;20.00
80555;PMS5003;69889;55.040;73.076;2024-01-30T05:00:31;44.75;35.00;22.25
80555;PMS5003;69889;55.040;73.076;2024-01-30T05:02:58;41.50;34.75;22.00
80555;PMS5003;69889;55.040;73.076;2024-01-30T05:05:24;46.50;37.00;22.75
80555;PMS5003;69889;55.040;73.076;2024-01-30T05:07:51;48.00;38.25;24.00
80555;PMS5003;69889;55.040;73.076;2024-01-30T05:10:17;41.00;33.50;21.25
80555;PMS5003;69889;55.040;73.076;2024-01-30T05:12:44;40.25;33.00;20.50
80555;PMS5003;69889;55.040;73.076;2024-01-30T05:15:10;39.00;31.75;21.00
80555;PMS5003;69889;55.040;73.076;2024-01-30T05:17:37;36.50;29.50;19.00
80555;PMS5003;69889;55.040;73.076;2024-01-30T05:20:04;37.00;30.25;18.00
80555;PMS5003;69889;55.040;73.076;2024-01-30T05:22:31;39.50;32.50;21.00
80555;PMS5003;69889;55.040;73.076;2024-01-30T05:24:57;36.75;30.75;19.75
80555;PMS5003;69889;55.040;73.076;2024-01-30T05:27:23;39.00;32.00;20.00
80555;PMS5003;69889;55.040;73.076;2024-01-30T05:29:50;41.25;32.75;21.00
80555;PMS5003;69889;55.040;73.076;2024-01-30T05:32:16;42.75;33.75;21.50
80555;PMS5003;69889;55.040;73.076;2024-01-30T05:34:43;37.50;31.75;20.00
80555;PMS5003;69889;55.040;73.076;2024-01-30T05:37:10;38.00;31.75;20.50
80555;PMS5003;69889;55.040;73.076;2024-01-30T05:39:40;39.25;31.75;20.00
80555;PMS5003;69889;55.040;73.076;2024-01-30T05:42:07;40.75;33.00;19.50
80555;PMS5003;69889;55.040;73.076;2024-01-30T05:44:33;37.75;31.25;19.50
80555;PMS5003;69889;55.040;73.076;2024-01-30T05:47:00;41.00;32.00;20.25
80555;PMS5003;69889;55.040;73.076;2024-01-30T05:49:26;43.00;34.00;21.50
80555;PMS5003;69889;55.040;73.076;2024-01-30T05:51:52;44.50;34.50;21.25
80555;PMS5003;69889;55.040;73.076;2024-01-30T05:54:19;43.75;34.00;20.75
80555;PMS5003;69889;55.040;73.076;2024-01-30T05:56:45;41.50;32.25;20.50
80555;PMS5003;69889;55.040;73.076;2024-01-30T05:59:12;33.75;27.00;17.00
80555;PMS5003;69889;55.040;73.076;2024-01-30T06:01:38;36.50;29.75;19.25
80555;PMS5003;69889;55.040;73.076;2024-01-30T06:04:14;40.00;31.00;19.50
80555;PMS5003;69889;55.040;73.076;2024-01-30T06:06:41;42.00;33.75;21.00
80555;PMS5003;69889;55.040;73.076;2024-01-30T06:09:08;37.25;30.00;18.25
80555;PMS5003;69889;55.040;73.076;2024-01-30T06:11:35;43.75;34.00;22.00
80555;PMS5003;69889;55.040;73.076;2024-01-30T06:14:01;38.00;31.00;19.25
80555;PMS5003;69889;55.040;73.076;2024-01-30T06:16:29;38.00;31.75;19.50
80555;PMS5003;69889;55.040;73.076;2024-01-30T06:18:55;41.00;32.00;20.00
80555;PMS5003;69889;55.040;73.076;2024-01-30T06:21:23;41.00;32.75;21.75
80555;PMS5003;69889;55.040;73.076;2024-01-30T06:23:49;41.00;34.00;21.25
80555;PMS5003;69889;55.040;73.076;2024-01-30T06:26:20;38.50;30.75;20.00
80555;PMS5003;69889;55.040;73.076;2024-01-30T06:28:47;40.50;33.00;21.00
80555;PMS5003;69889;55.040;73.076;2024-01-30T06:31:13;39.25;34.25;22.00
80555;PMS5003;69889;55.040;73.076;2024-01-30T06:33:40;40.00;32.00;19.75
80555;PMS5003;69889;55.040;73.076;2024-01-30T06:36:08;40.50;31.50;21.25
80555;PMS5003;69889;55.040;73.076;2024-01-30T06:38:35;37.25;31.00;20.00
80555;PMS5003;69889;55.040;73.076;2024-01-30T06:41:02;42.00;33.50;20.75
80555;PMS5003;69889;55.040;73.076;2024-01-30T06:43:29;40.00;33.00;19.50
80555;PMS5003;69889;55.040;73.076;2024-01-30T06:45:57;44.75;36.25;21.75
80555;PMS5003;69889;55.040;73.076;2024-01-30T06:48:23;47.25;38.00;23.75
80555;PMS5003;69889;55.040;73.076;2024-01-30T06:50:50;49.50;39.00;26.00
80555;PMS5003;69889;55.040;73.076;2024-01-30T06:53:19;45.50;36.25;24.00
80555;PMS5003;69889;55.040;73.076;2024-01-30T06:55:45;48.00;37.50;24.00
80555;PMS5003;69889;55.040;73.076;2024-01-30T06:58:12;35.25;29.00;19.50
80555;PMS5003;69889;55.040;73.076;2024-01-30T07:00:39;41.25;31.75;19.50
80555;PMS5003;69889;55.040;73.076;2024-01-30T07:03:05;32.75;26.50;18.00
80555;PMS5003;69889;55.040;73.076;2024-01-30T07:05:32;37.50;31.00;20.00
80555;PMS5003;69889;55.040;73.076;2024-01-30T07:07:59;42.75;35.00;22.00
80555;PMS5003;69889;55.040;73.076;2024-01-30T07:10:26;41.00;33.00;21.00
80555;PMS5003;69889;55.040;73.076;2024-01-30T07:13:02;40.00;31.75;19.50
80555;PMS5003;69889;55.040;73.076;2024-01-30T07:15:31;41.25;33.00;21.00
80555;PMS5003;69889;55.040;73.076;2024-01-30T07:17:57;40.25;33.00;20.75
80555;PMS5003;69889;55.040;73.076;2024-01-30T07:20:24;43.25;33.00;20.25
80555;PMS5003;69889;55.040;73.076;2024-01-30T07:22:51;35.75;31.00;20.75
80555;PMS5003;69889;55.040;73.076;2024-01-30T07:25:17;40.50;33.75;21.00
80555;PMS5003;69889;55.040;73.076;2024-01-30T07:27:47;37.00;30.75;19.75
80555;PMS5003;69889;55.040;73.076;2024-01-30T07:30:14;39.25;32.50;21.75
80555;PMS5003;69889;55.040;73.076;2024-01-30T07:32:41;38.25;30.25;20.00
80555;PMS5003;69889;55.040;73.076;2024-01-30T07:35:08;36.50;31.00;20.00
80555;PMS5003;69889;55.040;73.076;2024-01-30T07:37:34;39.75;32.00;20.00
80555;PMS5003;69889;55.040;73.076;2024-01-30T07:40:01;39.50;32.00;20.25
80555;PMS5003;69889;55.040;73.076;2024-01-30T07:42:27;39.00;32.00;19.50
80555;PMS5003;69889;55.040;73.076;2024-01-30T07:44:54;41.00;32.25;19.25
80555;PMS5003;69889;55.040;73.076;2024-01-30T07:47:20;42.00;33.00;20.00
80555;PMS5003;69889;55.040;73.076;2024-01-30T07:49:51;40.50;32.50;20.00
80555;PMS5003;69889;55.040;73.076;2024-01-30T07:52:18;40.00;32.00;20.00
80555;PMS5003;69889;55.040;73.076;2024-01-30T07:54:45;40.75;32.25;21.00
80555;PMS5003;69889;55.040;73.076;2024-01-30T07:57:14;38.25;30.75;19.50
80555;PMS5003;69889;55.040;73.076;2024-01-30T07:59:44;39.50;31.75;19.75
80555;PMS5003;69889;55.040;73.076;2024-01-30T08:02:13;36.25;30.00;18.75
80555;PMS5003;69889;55.040;73.076;2024-01-30T08:04:40;37.00;30.75;19.50
80555;PMS5003;69889;55.040;73.076;2024-01-30T08:07:06;41.00;33.00;20.00
80555;PMS5003;69889;55.040;73.076;2024-01-30T08:09:33;38.00;30.00;18.25
80555;PMS5003;69889;55.040;73.076;2024-01-30T08:11:59;42.00;34.00;21.00
80555;PMS5003;69889;55.040;73.076;2024-01-30T08:14:27;39.75;32.25;19.50
80555;PMS5003;69889;55.040;73.076;2024-01-30T08:16:58;38.00;31.75;19.25
80555;PMS5003;69889;55.040;73.076;2024-01-30T08:19:24;53.50;43.25;28.00
80555;PMS5003;69889;55.040;73.076;2024-01-30T08:21:52;54.50;42.50;28.00
80555;PMS5003;69889;55.040;73.076;2024-01-30T08:24:20;56.00;44.00;28.00
80555;PMS5003;69889;55.040;73.076;2024-01-30T08:26:46;43.75;35.00;21.75
80555;PMS5003;69889;55.040;73.076;2024-01-30T08:29:13;53.75;43.50;28.00
80555;PMS5003;69889;55.040;73.076;2024-01-30T08:31:39;37.25;31.00;20.50
80555;PMS5003;69889;55.040;73.076;2024-01-30T08:34:06;39.25;31.50;20.25
80555;PMS5003;69889;55.040;73.076;2024-01-30T08:36:32;38.00;30.50;20.00
80555;PMS5003;69889;55.040;73.076;2024-01-30T08:38:59;36.75;30.50;20.25
80555;PMS5003;69889;55.040;73.076;2024-01-30T08:41:25;37.00;30.00;20.00
80555;PMS5003;69889;55.040;73.076;2024-01-30T08:43:52;43.50;33.50;21.50
80555;PMS5003;69889;55.040;73.076;2024-01-30T08:46:18;38.00;31.00;19.25
80555;PMS5003;69889;55.040;73.076;2024-01-30T08:48:46;38.00;30.00;19.25
80555;PMS5003;69889;55.040;73.076;2024-01-30T08:51:12;43.00;34.50;21.50
80555;PMS5003;69889;55.040;73.076;2024-01-30T08:53:39;42.25;34.75;22.75
80555;PMS5003;69889;55.040;73.076;2024-01-30T08:56:05;46.75;36.00;21.25
80555;PMS5003;69889;55.040;73.076;2024-01-30T08:58:32;45.50;35.25;22.25
80555;PMS5003;69889;55.040;73.076;2024-01-30T09:00:59;44.00;35.25;21.00
80555;PMS5003;69889;55.040;73.076;2024-01-30T09:03:25;42.50;34.50;22.75
80555;PMS5003;69889;55.040;73.076;2024-01-30T09:05:52;38.50;30.25;19.00
80555;PMS5003;69889;55.040;73.076;2024-01-30T09:08:18;44.25;34.75;22.25
80555;PMS5003;69889;55.040;73.076;2024-01-30T09:10:44;41.25;33.00;21.00
80555;PMS5003;69889;55.040;73.076;2024-01-30T09:13:11;42.25;32.75;21.00
80555;PMS5003;69889;55.040;73.076;2024-01-30T09:15:37;42.00;32.25;20.00
80555;PMS5003;69889;55.040;73.076;2024-01-30T09:18:04;43.75;34.75;21.00
80555;PMS5003;69889;55.040;73.076;2024-01-30T09:20:31;43.75;34.75;21.50
80555;PMS5003;69889;55.040;73.076;2024-01-30T09:23:01;42.50;33.50;21.25
80555;PMS5003;69889;55.040;73.076;2024-01-30T09:25:31;43.75;35.25;21.50
80555;PMS5003;69889;55.040;73.076;2024-01-30T09:28:01;40.75;33.00;20.00
80555;PMS5003;69889;55.040;73.076;2024-01-30T09:30:30;64.25;50.00;32.75
80555;PMS5003;69889;55.040;73.076;2024-01-30T09:33:05;47.25;38.50;25.50
80555;PMS5003;69889;55.040;73.076;2024-01-30T09:35:37;43.50;34.75;21.75
80555;PMS5003;69889;55.040;73.076;2024-01-30T09:38:04;42.50;34.00;21.00
80555;PMS5003;69889;55.040;73.076;2024-01-30T09:40:30;40.00;32.50;20.50
80555;PMS5003;69889;55.040;73.076;2024-01-30T09:42:58;38.50;30.75;20.00
80555;PMS5003;69889;55.040;73.076;2024-01-30T09:45:26;41.50;34.00;21.75
80555;PMS5003;69889;55.040;73.076;2024-01-30T09:47:52;41.25;33.50;20.75
80555;PMS5003;69889;55.040;73.076;2024-01-30T09:50:19;43.25;34.00;21.00
80555;PMS5003;69889;55.040;73.076;2024-01-30T09:52:46;41.00;34.25;23.25
80555;PMS5003;69889;55.040;73.076;2024-01-30T09:55:13;42.50;35.00;22.00
80555;PMS5003;69889;55.040;73.076;2024-01-30T09:57:41;41.25;34.00;21.75
80555;PMS5003;69889;55.040;73.076;2024-01-30T10:00:07;47.75;37.00;21.50
80555;PMS5003;69889;55.040;73.076;2024-01-30T10:02:41;42.75;34.25;21.25
80555;PMS5003;69889;55.040;73.076;2024-01-30T10:05:08;39.75;32.25;19.75
80555;PMS5003;69889;55.040;73.076;2024-01-30T10:07:37;38.00;32.00;20.00
80555;PMS5003;69889;55.040;73.076;2024-01-30T10:10:05;42.25;34.00;22.00
80555;PMS5003;69889;55.040;73.076;2024-01-30T10:12:31;41.00;33.00;20.50
80555;PMS5003;69889;55.040;73.076;2024-01-30T10:15:01;42.00;34.75;21.25
80555;PMS5003;69889;55.040;73.076;2024-01-30T10:17:29;40.50;32.00;20.25
80555;PMS5003;69889;55.040;73.076;2024-01-30T10:19:59;38.00;31.00;18.50
80555;PMS5003;69889;55.040;73.076;2024-01-30T10:22:25;41.75;32.75;21.00
80555;PMS5003;69889;55.040;73.076;2024-01-30T10:24:52;41.50;33.50;20.75
80555;PMS5003;69889;55.040;73.076;2024-01-30T10:27:23;43.25;34.75;21.75
80555;PMS5003;69889;55.040;73.076;2024-01-30T10:29:50;38.25;32.00;21.25
80555;PMS5003;69889;55.040;73.076;2024-01-30T10:32:17;37.50;31.25;21.00
80555;PMS5003;69889;55.040;73.076;2024-01-30T10:34:44;41.00;32.25;21.00
80555;PMS5003;69889;55.040;73.076;2024-01-30T10:37:11;37.25;31.50;20.25
80555;PMS5003;69889;55.040;73.076;2024-01-30T10:39:44;43.00;33.75;21.25
80555;PMS5003;69889;55.040;73.076;2024-01-30T10:42:28;38.25;32.00;21.00
80555;PMS5003;69889;55.040;73.076;2024-01-30T10:45:07;41.75;34.00;22.00
80555;PMS5003;69889;55.040;73.076;2024-01-30T10:47:40;41.25;34.00;21.75
80555;PMS5003;69889;55.040;73.076;2024-01-30T10:50:07;42.25;33.00;20.50
80555;PMS5003;69889;55.040;73.076;2024-01-30T10:52:34;39.50;31.00;19.00
80555;PMS5003;69889;55.040;73.076;2024-01-30T10:55:01;36.75;29.25;19.25
80555;PMS5003;69889;55.040;73.076;2024-01-30T10:57:31;39.75;31.50;19.50
80555;PMS5003;69889;55.040;73.076;2024-01-30T11:00:06;41.50;32.75;21.00
80555;PMS5003;69889;55.040;73.076;2024-01-30T11:02:40;40.00;32.00;20.00
80555;PMS5003;69889;55.040;73.076;2024-01-30T11:05:09;40.75;32.50;20.00
80555;PMS5003;69889;55.040;73.076;2024-01-30T11:07:35;43.00;34.00;21.00
80555;PMS5003;69889;55.040;73.076;2024-01-30T11:10:02;38.00;31.00;19.00
80555;PMS5003;69889;55.040;73.076;2024-01-30T11:12:32;37.50;31.75;19.75
80555;PMS5003;69889;55.040;73.076;2024-01-30T11:20:14;36.75;28.50;18.75
80555;PMS5003;69889;55.040;73.076;2024-01-30T11:22:42;37.00;29.50;18.75
80555;PMS5003;69889;55.040;73.076;2024-01-30T11:25:16;41.75;33.00;20.00
80555;PMS5003;69889;55.040;73.076;2024-01-30T11:27:47;37.25;30.75;19.25
80555;PMS5003;69889;55.040;73.076;2024-01-30T11:33:07;39.25;32.00;20.25
80555;PMS5003;69889;55.040;73.076;2024-01-30T11:35:38;36.25;29.25;18.50
80555;PMS5003;69889;55.040;73.076;2024-01-30T11:38:08;36.75;30.75;18.50
80555;PMS5003;69889;55.040;73.076;2024-01-30T11:40:37;37.25;31.75;20.25
80555;PMS5003;69889;55.040;73.076;2024-01-30T11:43:04;38.00;31.00;20.50
80555;PMS5003;69889;55.040;73.076;2024-01-30T11:45:34;36.75;30.75;19.50
80555;PMS5003;69889;55.040;73.076;2024-01-30T11:48:05;40.50;31.75;20.00
80555;PMS5003;69889;55.040;73.076;2024-01-30T11:50:33;40.25;32.50;20.50
80555;PMS5003;69889;55.040;73.076;2024-01-30T11:52:59;44.75;35.75;22.25
80555;PMS5003;69889;55.040;73.076;2024-01-30T11:55:26;46.00;36.75;23.50
80555;PMS5003;69889;55.040;73.076;2024-01-30T11:57:57;45.00;35.50;22.50
80555;PMS5003;69889;55.040;73.076;2024-01-30T12:00:23;46.25;37.00;24.00
80555;PMS5003;69889;55.040;73.076;2024-01-30T12:02:54;44.75;36.25;23.00
80555;PMS5003;69889;55.040;73.076;2024-01-30T12:05:24;42.50;34.00;22.50
80555;PMS5003;69889;55.040;73.076;2024-01-30T12:17:40;40.75;33.00;21.50
80555;PMS5003;69889;55.040;73.076;2024-01-30T12:20:11;44.75;35.50;23.00
80555;PMS5003;69889;55.040;73.076;2024-01-30T12:22:43;44.50;35.00;22.00
80555;PMS5003;69889;55.040;73.076;2024-01-30T12:25:27;45.00;35.00;21.00
80555;PMS5003;69889;55.040;73.076;2024-01-30T12:28:13;46.00;35.75;22.00
80555;PMS5003;69889;55.040;73.076;2024-01-30T12:31:02;40.50;32.75;21.00
80555;PMS5003;69889;55.040;73.076;2024-01-30T12:33:49;43.75;35.25;21.75
80555;PMS5003;69889;55.040;73.076;2024-01-30T12:36:15;45.00;36.25;23.00
80555;PMS5003;69889;55.040;73.076;2024-01-30T12:38:43;44.50;35.75;21.50
80555;PMS5003;69889;55.040;73.076;2024-01-30T12:41:09;40.50;32.75;20.25
80555;PMS5003;69889;55.040;73.076;2024-01-30T12:43:39;42.25;34.00;20.75
80555;PMS5003;69889;55.040;73.076;2024-01-30T12:46:05;35.00;29.00;17.75
80555;PMS5003;69889;55.040;73.076;2024-01-30T12:48:32;38.00;29.75;18.50
80555;PMS5003;69889;55.040;73.076;2024-01-30T12:50:58;36.25;30.00;18.50
80555;PMS5003;69889;55.040;73.076;2024-01-30T12:53:26;36.00;30.00;19.00
80555;PMS5003;69889;55.040;73.076;2024-01-30T12:55:53;37.00;30.75;19.25
80555;PMS5003;69889;55.040;73.076;2024-01-30T12:58:21;37.00;29.75;20.00
80555;PMS5003;69889;55.040;73.076;2024-01-30T13:00:47;36.25;30.00;18.75
80555;PMS5003;69889;55.040;73.076;2024-01-30T13:03:14;42.50;33.00;20.00
80555;PMS5003;69889;55.040;73.076;2024-01-30T13:05:40;39.00;31.00;20.50
80555;PMS5003;69889;55.040;73.076;2024-01-30T13:08:07;43.25;33.50;22.00
80555;PMS5003;69889;55.040;73.076;2024-01-30T13:10:33;38.50;30.50;19.25
80555;PMS5003;69889;55.040;73.076;2024-01-30T13:13:00;42.50;33.00;20.00
80555;PMS5003;69889;55.040;73.076;2024-01-30T13:15:27;39.00;32.00;20.50
80555;PMS5003;69889;55.040;73.076;2024-01-30T13:17:54;38.00;30.50;19.00
80555;PMS5003;69889;55.040;73.076;2024-01-30T13:20:20;41.00;33.00;21.00
80555;PMS5003;69889;55.040;73.076;2024-01-30T13:22:47;41.00;33.00;19.50
80555;PMS5003;69889;55.040;73.076;2024-01-30T13:25:17;40.50;31.50;18.75
80555;PMS5003;69889;55.040;73.076;2024-01-30T13:27:43;39.00;31.00;19.50
80555;PMS5003;69889;55.040;73.076;2024-01-30T13:30:18;42.75;33.50;19.50
80555;PMS5003;69889;55.040;73.076;2024-01-30T13:32:45;40.75;32.50;20.50
80555;PMS5003;69889;55.040;73.076;2024-01-30T13:35:12;40.50;33.00;18.50
80555;PMS5003;69889;55.040;73.076;2024-01-30T13:37:39;39.50;32.00;19.00
80555;PMS5003;69889;55.040;73.076;2024-01-30T13:40:08;40.50;33.00;18.75
80555;PMS5003;69889;55.040;73.076;2024-01-30T13:42:35;36.00;30.00;19.25
80555;PMS5003;69889;55.040;73.076;2024-01-30T13:45:01;40.00;31.00;19.50
80555;PMS5003;69889;55.040;73.076;2024-01-30T13:47:28;37.00;30.00;19.00
80555;PMS5003;69889;55.040;73.076;2024-01-30T13:50:02;39.25;30.50;19.50
80555;PMS5003;69889;55.040;73.076;2024-01-30T13:52:29;38.50;31.25;20.00
80555;PMS5003;69889;55.040;73.076;2024-01-30T13:54:55;36.50;29.75;18.00